sensor_id;sensor_type;location;lat;lon;timestamp;temperature;humidity
26541;DHT22;14206;50.202;10.948;2022-12-29T00:02:01;7.40;93.90
26541;DHT22;14206;50.202;10.948;2022-12-29T00:04:28;7.40;94.30
26541;DHT22;14206;50.202;10.948;2022-12-29T00:06:54;7.40;94.30
26541;DHT22;14206;50.202;10.948;2022-12-29T00:09:22;7.40;94.50
26541;DHT22;14206;50.202;10.948;2022-12-29T00:11:48;7.30;95.00
26541;DHT22;14206;50.202;10.948;2022-12-29T00:14:16;7.30;95.30
26541;DHT22;14206;50.202;10.948;2022-12-29T00:17:02;7.30;95.60
26541;DHT22;14206;50.202;10.948;2022-12-29T00:19:29;7.20;95.70
26541;DHT22;14206;50.202;10.948;2022-12-29T00:22:15;7.20;95.80
26541;DHT22;14206;50.202;10.948;2022-12-29T00:25:14;7.20;95.70
26541;DHT22;14206;50.202;10.948;2022-12-29T00:28:00;7.20;95.80
26541;DHT22;14206;50.202;10.948;2022-12-29T00:30:45;7.30;95.30
26541;DHT22;14206;50.202;10.948;2022-12-29T00:33:32;7.30;95.10
26541;DHT22;14206;50.202;10.948;2022-12-29T00:36:36;7.30;95.00
26541;DHT22;14206;50.202;10.948;2022-12-29T00:39:15;7.30;94.80
26541;DHT22;14206;50.202;10.948;2022-12-29T00:42:08;7.30;94.70
26541;DHT22;14206;50.202;10.948;2022-12-29T00:45:07;7.40;94.50
26541;DHT22;14206;50.202;10.948;2022-12-29T00:47:34;7.40;94.40
26541;DHT22;14206;50.202;10.948;2022-12-29T00:50:01;7.50;94.00
26541;DHT22;14206;50.202;10.948;2022-12-29T00:52:28;7.50;94.20
26541;DHT22;14206;50.202;10.948;2022-12-29T00:54:54;7.60;93.90
26541;DHT22;14206;50.202;10.948;2022-12-29T00:57:21;7.60;93.60
26541;DHT22;14206;50.202;10.948;2022-12-29T00:59:48;7.70;93.60
26541;DHT22;14206;50.202;10.948;2022-12-29T01:02:15;7.70;93.50
26541;DHT22;14206;50.202;10.948;2022-12-29T01:04:42;7.70;93.10
26541;DHT22;14206;50.202;10.948;2022-12-29T01:07:09;7.80;92.90
26541;DHT22;14206;50.202;10.948;2022-12-29T01:09:36;7.80;92.80
26541;DHT22;14206;50.202;10.948;2022-12-29T01:12:21;7.80;92.70
26541;DHT22;14206;50.202;10.948;2022-12-29T01:15:10;7.90;92.50
26541;DHT22;14206;50.202;10.948;2022-12-29T01:17:37;7.90;92.50
26541;DHT22;14206;50.202;10.948;2022-12-29T01:20:04;7.90;92.30
26541;DHT22;14206;50.202;10.948;2022-12-29T01:22:31;8.00;92.30
26541;DHT22;14206;50.202;10.948;2022-12-29T01:24:59;8.00;92.20
26541;DHT22;14206;50.202;10.948;2022-12-29T01:27:26;8.00;91.60
26541;DHT22;14206;50.202;10.948;2022-12-29T01:29:53;8.00;92.00
26541;DHT22;14206;50.202;10.948;2022-12-29T01:32:19;8.10;91.50
26541;DHT22;14206;50.202;10.948;2022-12-29T01:34:47;8.20;91.30
26541;DHT22;14206;50.202;10.948;2022-12-29T01:37:14;8.20;91.30
26541;DHT22;14206;50.202;10.948;2022-12-29T01:39:40;8.20;91.00
26541;DHT22;14206;50.202;10.948;2022-12-29T01:42:16;8.30;90.60
26541;DHT22;14206;50.202;10.948;2022-12-29T01:44:56;8.30;90.60
26541;DHT22;14206;50.202;10.948;2022-12-29T01:49:59;8.30;90.60
26541;DHT22;14206;50.202;10.948;2022-12-29T01:52:31;8.40;90.60
26541;DHT22;14206;50.202;10.948;2022-12-29T01:55:02;8.40;90.70
26541;DHT22;14206;50.202;10.948;2022-12-29T01:57:33;8.40;90.60
26541;DHT22;14206;50.202;10.948;2022-12-29T02:00:10;8.40;90.80
26541;DHT22;14206;50.202;10.948;2022-12-29T02:02:43;8.50;90.80
26541;DHT22;14206;50.202;10.948;2022-12-29T02:05:28;8.50;90.60
26541;DHT22;14206;50.202;10.948;2022-12-29T02:07:59;8.50;90.90
26541;DHT22;14206;50.202;10.948;2022-12-29T02:10:29;8.60;91.00
26541;DHT22;14206;50.202;10.948;2022-12-29T02:12:57;8.60;91.00
26541;DHT22;14206;50.202;10.948;2022-12-29T02:18:38;8.60;91.10
26541;DHT22;14206;50.202;10.948;2022-12-29T02:29:52;8.70;92.10
26541;DHT22;14206;50.202;10.948;2022-12-29T02:38:41;8.80;92.10
26541;DHT22;14206;50.202;10.948;2022-12-29T02:41:21;8.80;92.30
26541;DHT22;14206;50.202;10.948;2022-12-29T02:46:27;8.80;91.10
26541;DHT22;14206;50.202;10.948;2022-12-29T02:49:16;8.90;90.60
26541;DHT22;14206;50.202;10.948;2022-12-29T02:54:19;8.90;90.30
26541;DHT22;14206;50.202;10.948;2022-12-29T02:57:14;8.90;90.50
26541;DHT22;14206;50.202;10.948;2022-12-29T02:59:45;8.90;90.50
26541;DHT22;14206;50.202;10.948;2022-12-29T03:05:23;8.90;90.70
26541;DHT22;14206;50.202;10.948;2022-12-29T03:11:10;8.90;91.00
26541;DHT22;14206;50.202;10.948;2022-12-29T03:14:15;9.00;91.00
26541;DHT22;14206;50.202;10.948;2022-12-29T03:17:08;9.00;90.20
26541;DHT22;14206;50.202;10.948;2022-12-29T03:19:41;9.10;89.70
26541;DHT22;14206;50.202;10.948;2022-12-29T03:22:25;9.10;89.40
26541;DHT22;14206;50.202;10.948;2022-12-29T03:25:28;9.10;89.60
26541;DHT22;14206;50.202;10.948;2022-12-29T03:28:01;9.10;89.70
26541;DHT22;14206;50.202;10.948;2022-12-29T03:30:34;9.10;90.70
26541;DHT22;14206;50.202;10.948;2022-12-29T03:33:04;9.00;91.70
26541;DHT22;14206;50.202;10.948;2022-12-29T03:35:39;9.00;92.10
26541;DHT22;14206;50.202;10.948;2022-12-29T03:40:55;9.10;92.10
26541;DHT22;14206;50.202;10.948;2022-12-29T03:43:25;9.10;92.50
26541;DHT22;14206;50.202;10.948;2022-12-29T03:45:54;9.20;92.40
26541;DHT22;14206;50.202;10.948;2022-12-29T03:48:21;9.20;92.80
26541;DHT22;14206;50.202;10.948;2022-12-29T03:50:49;9.20;93.00
26541;DHT22;14206;50.202;10.948;2022-12-29T03:53:17;9.10;94.00
26541;DHT22;14206;50.202;10.948;2022-12-29T03:55:44;9.10;94.30
26541;DHT22;14206;50.202;10.948;2022-12-29T03:58:11;9.00;94.60
26541;DHT22;14206;50.202;10.948;2022-12-29T04:00:55;9.00;94.60
26541;DHT22;14206;50.202;10.948;2022-12-29T04:03:22;9.10;94.30
26541;DHT22;14206;50.202;10.948;2022-12-29T04:05:49;9.10;94.60
26541;DHT22;14206;50.202;10.948;2022-12-29T04:08:16;9.10;94.90
26541;DHT22;14206;50.202;10.948;2022-12-29T04:10:43;9.10;95.20
26541;DHT22;14206;50.202;10.948;2022-12-29T04:13:12;9.00;95.60
26541;DHT22;14206;50.202;10.948;2022-12-29T04:15:39;9.00;95.80
26541;DHT22;14206;50.202;10.948;2022-12-29T04:18:08;9.10;96.00
26541;DHT22;14206;50.202;10.948;2022-12-29T04:20:35;9.10;96.10
26541;DHT22;14206;50.202;10.948;2022-12-29T04:23:21;9.10;96.50
26541;DHT22;14206;50.202;10.948;2022-12-29T04:25:48;9.10;96.40
26541;DHT22;14206;50.202;10.948;2022-12-29T04:28:16;9.20;96.50
26541;DHT22;14206;50.202;10.948;2022-12-29T04:30:53;9.30;96.50
26541;DHT22;14206;50.202;10.948;2022-12-29T04:33:23;9.30;96.60
26541;DHT22;14206;50.202;10.948;2022-12-29T04:35:51;9.30;96.60
26541;DHT22;14206;50.202;10.948;2022-12-29T04:38:22;9.40;96.60
26541;DHT22;14206;50.202;10.948;2022-12-29T04:40:50;9.50;96.60
26541;DHT22;14206;50.202;10.948;2022-12-29T04:43:20;9.70;96.60
26541;DHT22;14206;50.202;10.948;2022-12-29T04:46:03;9.90;96.60
26541;DHT22;14206;50.202;10.948;2022-12-29T04:48:39;10.00;96.60
26541;DHT22;14206;50.202;10.948;2022-12-29T04:51:23;10.10;96.60
26541;DHT22;14206;50.202;10.948;2022-12-29T04:53:50;10.20;96.60
26541;DHT22;14206;50.202;10.948;2022-12-29T04:56:16;10.30;96.60
26541;DHT22;14206;50.202;10.948;2022-12-29T04:58:44;10.40;96.60
26541;DHT22;14206;50.202;10.948;2022-12-29T05:01:12;10.50;96.60
26541;DHT22;14206;50.202;10.948;2022-12-29T05:03:39;10.50;96.40
26541;DHT22;14206;50.202;10.948;2022-12-29T05:06:06;10.60;96.20
26541;DHT22;14206;50.202;10.948;2022-12-29T05:08:33;10.70;95.80
26541;DHT22;14206;50.202;10.948;2022-12-29T05:11:01;10.70;95.70
26541;DHT22;14206;50.202;10.948;2022-12-29T05:13:28;10.70;95.50
26541;DHT22;14206;50.202;10.948;2022-12-29T05:15:56;10.80;95.10
26541;DHT22;14206;50.202;10.948;2022-12-29T05:18:23;10.80;94.90
26541;DHT22;14206;50.202;10.948;2022-12-29T05:20:50;10.80;94.90
26541;DHT22;14206;50.202;10.948;2022-12-29T05:23:19;10.80;94.80
26541;DHT22;14206;50.202;10.948;2022-12-29T05:25:52;10.80;94.60
26541;DHT22;14206;50.202;10.948;2022-12-29T05:28:33;10.90;94.20
26541;DHT22;14206;50.202;10.948;2022-12-29T05:31:09;10.90;94.20
26541;DHT22;14206;50.202;10.948;2022-12-29T05:33:37;10.90;94.30
26541;DHT22;14206;50.202;10.948;2022-12-29T05:36:05;10.90;94.00
26541;DHT22;14206;50.202;10.948;2022-12-29T05:38:34;10.90;93.60
26541;DHT22;14206;50.202;10.948;2022-12-29T05:41:01;10.90;93.20
26541;DHT22;14206;50.202;10.948;2022-12-29T05:43:56;10.90;93.10
26541;DHT22;14206;50.202;10.948;2022-12-29T05:46:34;10.80;93.30
26541;DHT22;14206;50.202;10.948;2022-12-29T05:49:23;10.80;93.50
26541;DHT22;14206;50.202;10.948;2022-12-29T05:52:23;10.80;93.20
26541;DHT22;14206;50.202;10.948;2022-12-29T05:54:50;10.80;92.90
26541;DHT22;14206;50.202;10.948;2022-12-29T05:57:20;10.90;92.40
26541;DHT22;14206;50.202;10.948;2022-12-29T05:59:56;11.00;92.00
26541;DHT22;14206;50.202;10.948;2022-12-29T06:02:23;11.10;91.80
26541;DHT22;14206;50.202;10.948;2022-12-29T06:04:50;11.10;91.70
26541;DHT22;14206;50.202;10.948;2022-12-29T06:07:17;11.10;91.70
26541;DHT22;14206;50.202;10.948;2022-12-29T06:09:46;11.00;91.40
26541;DHT22;14206;50.202;10.948;2022-12-29T06:12:13;11.00;91.10
26541;DHT22;14206;50.202;10.948;2022-12-29T06:14:43;10.90;91.10
26541;DHT22;14206;50.202;10.948;2022-12-29T06:17:10;10.80;91.20
26541;DHT22;14206;50.202;10.948;2022-12-29T06:19:37;10.80;90.80
26541;DHT22;14206;50.202;10.948;2022-12-29T06:22:04;10.70;90.70
26541;DHT22;14206;50.202;10.948;2022-12-29T06:24:33;10.60;91.30
26541;DHT22;14206;50.202;10.948;2022-12-29T06:27:00;10.50;91.20
26541;DHT22;14206;50.202;10.948;2022-12-29T06:29:27;10.30;91.40
26541;DHT22;14206;50.202;10.948;2022-12-29T06:31:56;10.30;91.10
26541;DHT22;14206;50.202;10.948;2022-12-29T06:34:25;10.20;91.70
26541;DHT22;14206;50.202;10.948;2022-12-29T06:36:52;10.20;91.70
26541;DHT22;14206;50.202;10.948;2022-12-29T06:39:18;10.10;92.00
26541;DHT22;14206;50.202;10.948;2022-12-29T06:41:58;10.00;91.90
26541;DHT22;14206;50.202;10.948;2022-12-29T06:44:50;10.00;92.20
26541;DHT22;14206;50.202;10.948;2022-12-29T06:47:17;9.90;91.90
26541;DHT22;14206;50.202;10.948;2022-12-29T06:49:45;9.90;91.40
26541;DHT22;14206;50.202;10.948;2022-12-29T06:52:13;9.90;91.00
26541;DHT22;14206;50.202;10.948;2022-12-29T06:54:39;9.90;90.90
26541;DHT22;14206;50.202;10.948;2022-12-29T06:57:06;9.90;90.90
26541;DHT22;14206;50.202;10.948;2022-12-29T06:59:34;9.90;90.80
26541;DHT22;14206;50.202;10.948;2022-12-29T07:02:04;9.80;90.50
26541;DHT22;14206;50.202;10.948;2022-12-29T07:04:31;9.80;90.30
26541;DHT22;14206;50.202;10.948;2022-12-29T07:06:58;9.80;90.40
26541;DHT22;14206;50.202;10.948;2022-12-29T07:09:25;9.80;90.20
26541;DHT22;14206;50.202;10.948;2022-12-29T07:11:52;9.80;90.50
26541;DHT22;14206;50.202;10.948;2022-12-29T07:14:18;10.00;90.30
26541;DHT22;14206;50.202;10.948;2022-12-29T07:16:45;10.20;89.20
26541;DHT22;14206;50.202;10.948;2022-12-29T07:19:12;10.20;88.50
26541;DHT22;14206;50.202;10.948;2022-12-29T07:21:39;10.10;88.50
26541;DHT22;14206;50.202;10.948;2022-12-29T07:24:12;10.10;88.60
26541;DHT22;14206;50.202;10.948;2022-12-29T07:26:39;10.10;88.60
26541;DHT22;14206;50.202;10.948;2022-12-29T07:29:07;10.00;88.70
26541;DHT22;14206;50.202;10.948;2022-12-29T07:31:34;10.00;89.10
26541;DHT22;14206;50.202;10.948;2022-12-29T07:34:01;9.90;89.40
26541;DHT22;14206;50.202;10.948;2022-12-29T07:36:28;9.90;89.20
26541;DHT22;14206;50.202;10.948;2022-12-29T07:39:00;9.90;89.60
26541;DHT22;14206;50.202;10.948;2022-12-29T07:41:27;9.90;89.60
26541;DHT22;14206;50.202;10.948;2022-12-29T07:43:54;9.90;89.80
26541;DHT22;14206;50.202;10.948;2022-12-29T07:46:30;9.90;89.60
26541;DHT22;14206;50.202;10.948;2022-12-29T07:49:17;9.90;89.30
26541;DHT22;14206;50.202;10.948;2022-12-29T07:51:44;9.90;89.10
26541;DHT22;14206;50.202;10.948;2022-12-29T07:54:11;9.90;88.90
26541;DHT22;14206;50.202;10.948;2022-12-29T07:56:39;9.90;88.90
26541;DHT22;14206;50.202;10.948;2022-12-29T07:59:06;9.90;88.40
26541;DHT22;14206;50.202;10.948;2022-12-29T08:01:33;9.80;88.60
26541;DHT22;14206;50.202;10.948;2022-12-29T08:04:00;9.90;88.40
26541;DHT22;14206;50.202;10.948;2022-12-29T08:06:27;9.90;88.20
26541;DHT22;14206;50.202;10.948;2022-12-29T08:08:55;9.90;88.50
26541;DHT22;14206;50.202;10.948;2022-12-29T08:11:23;9.90;88.20
26541;DHT22;14206;50.202;10.948;2022-12-29T08:13:50;9.90;88.60
26541;DHT22;14206;50.202;10.948;2022-12-29T08:16:17;9.90;88.80
26541;DHT22;14206;50.202;10.948;2022-12-29T08:18:44;9.90;88.90
26541;DHT22;14206;50.202;10.948;2022-12-29T08:21:11;9.80;89.10
26541;DHT22;14206;50.202;10.948;2022-12-29T08:23:38;9.80;89.50
26541;DHT22;14206;50.202;10.948;2022-12-29T08:26:05;9.80;89.60
26541;DHT22;14206;50.202;10.948;2022-12-29T08:28:33;9.80;89.90
26541;DHT22;14206;50.202;10.948;2022-12-29T08:31:01;9.80;90.50
26541;DHT22;14206;50.202;10.948;2022-12-29T08:33:29;9.80;90.80
26541;DHT22;14206;50.202;10.948;2022-12-29T08:36:04;9.80;91.10
26541;DHT22;14206;50.202;10.948;2022-12-29T08:38:31;9.80;90.90
26541;DHT22;14206;50.202;10.948;2022-12-29T08:40:59;9.80;90.80
26541;DHT22;14206;50.202;10.948;2022-12-29T08:43:28;9.90;90.60
26541;DHT22;14206;50.202;10.948;2022-12-29T08:45:55;9.90;90.20
26541;DHT22;14206;50.202;10.948;2022-12-29T08:48:24;9.90;90.30
26541;DHT22;14206;50.202;10.948;2022-12-29T08:50:50;9.90;90.20
26541;DHT22;14206;50.202;10.948;2022-12-29T08:53:18;9.90;90.20
26541;DHT22;14206;50.202;10.948;2022-12-29T08:55:46;9.90;90.10
26541;DHT22;14206;50.202;10.948;2022-12-29T08:58:14;9.90;90.50
26541;DHT22;14206;50.202;10.948;2022-12-29T09:00:43;10.00;90.00
26541;DHT22;14206;50.202;10.948;2022-12-29T09:03:11;10.00;89.30
26541;DHT22;14206;50.202;10.948;2022-12-29T09:05:38;10.10;89.40
26541;DHT22;14206;50.202;10.948;2022-12-29T09:08:05;10.10;89.20
26541;DHT22;14206;50.202;10.948;2022-12-29T09:10:35;10.20;89.10
26541;DHT22;14206;50.202;10.948;2022-12-29T09:13:01;10.20;89.10
26541;DHT22;14206;50.202;10.948;2022-12-29T09:15:28;10.20;89.20
26541;DHT22;14206;50.202;10.948;2022-12-29T09:17:55;10.20;89.30
26541;DHT22;14206;50.202;10.948;2022-12-29T09:20:22;10.20;89.20
26541;DHT22;14206;50.202;10.948;2022-12-29T09:22:49;10.20;89.30
26541;DHT22;14206;50.202;10.948;2022-12-29T09:25:16;10.20;89.10
26541;DHT22;14206;50.202;10.948;2022-12-29T09:27:43;10.20;89.40
26541;DHT22;14206;50.202;10.948;2022-12-29T09:30:11;10.30;89.50
26541;DHT22;14206;50.202;10.948;2022-12-29T09:32:38;10.30;89.00
26541;DHT22;14206;50.202;10.948;2022-12-29T09:35:11;10.30;88.80
26541;DHT22;14206;50.202;10.948;2022-12-29T09:37:38;10.30;88.50
26541;DHT22;14206;50.202;10.948;2022-12-29T09:40:06;10.40;88.30
26541;DHT22;14206;50.202;10.948;2022-12-29T09:42:43;10.40;88.20
26541;DHT22;14206;50.202;10.948;2022-12-29T09:45:23;10.40;87.60
26541;DHT22;14206;50.202;10.948;2022-12-29T09:47:51;10.40;87.30
26541;DHT22;14206;50.202;10.948;2022-12-29T09:50:34;10.40;87.40
26541;DHT22;14206;50.202;10.948;2022-12-29T09:53:20;10.40;87.10
26541;DHT22;14206;50.202;10.948;2022-12-29T09:55:50;10.40;86.50
26541;DHT22;14206;50.202;10.948;2022-12-29T09:58:41;10.40;86.30
26541;DHT22;14206;50.202;10.948;2022-12-29T10:01:30;10.40;86.60
26541;DHT22;14206;50.202;10.948;2022-12-29T10:03:59;10.40;86.20
26541;DHT22;14206;50.202;10.948;2022-12-29T10:06:39;10.50;85.40
26541;DHT22;14206;50.202;10.948;2022-12-29T10:09:53;10.50;85.10
26541;DHT22;14206;50.202;10.948;2022-12-29T10:20:49;10.50;85.80
26541;DHT22;14206;50.202;10.948;2022-12-29T10:23:26;10.50;85.70
26541;DHT22;14206;50.202;10.948;2022-12-29T10:25:57;10.50;85.80
26541;DHT22;14206;50.202;10.948;2022-12-29T10:28:34;10.50;85.60
26541;DHT22;14206;50.202;10.948;2022-12-29T10:31:07;10.50;85.90
26541;DHT22;14206;50.202;10.948;2022-12-29T10:33:39;10.50;85.50
26541;DHT22;14206;50.202;10.948;2022-12-29T10:39:13;10.60;85.60
26541;DHT22;14206;50.202;10.948;2022-12-29T10:41:46;10.70;85.50
26541;DHT22;14206;50.202;10.948;2022-12-29T10:44:16;10.80;84.90
26541;DHT22;14206;50.202;10.948;2022-12-29T10:46:50;10.80;84.80
26541;DHT22;14206;50.202;10.948;2022-12-29T10:49:18;10.90;84.90
26541;DHT22;14206;50.202;10.948;2022-12-29T10:51:50;10.80;84.90
26541;DHT22;14206;50.202;10.948;2022-12-29T10:54:26;10.90;84.60
26541;DHT22;14206;50.202;10.948;2022-12-29T10:56:56;10.90;84.40
26541;DHT22;14206;50.202;10.948;2022-12-29T10:59:28;10.90;85.00
26541;DHT22;14206;50.202;10.948;2022-12-29T11:04:57;10.90;85.20
26541;DHT22;14206;50.202;10.948;2022-12-29T11:07:30;10.90;85.00
26541;DHT22;14206;50.202;10.948;2022-12-29T11:10:34;10.90;84.70
26541;DHT22;14206;50.202;10.948;2022-12-29T11:13:18;10.90;85.00
26541;DHT22;14206;50.202;10.948;2022-12-29T11:15:48;10.90;85.30
26541;DHT22;14206;50.202;10.948;2022-12-29T11:18:36;11.00;85.00
26541;DHT22;14206;50.202;10.948;2022-12-29T11:21:28;11.40;84.70
26541;DHT22;14206;50.202;10.948;2022-12-29T11:24:04;11.50;84.10
26541;DHT22;14206;50.202;10.948;2022-12-29T11:26:32;11.60;83.70
26541;DHT22;14206;50.202;10.948;2022-12-29T11:31:45;11.50;83.30
26541;DHT22;14206;50.202;10.948;2022-12-29T11:34:35;11.50;84.00
26541;DHT22;14206;50.202;10.948;2022-12-29T11:37:05;11.50;84.60
26541;DHT22;14206;50.202;10.948;2022-12-29T11:42:37;11.60;85.10
26541;DHT22;14206;50.202;10.948;2022-12-29T11:45:24;11.80;84.70
26541;DHT22;14206;50.202;10.948;2022-12-29T11:48:05;11.90;84.40
26541;DHT22;14206;50.202;10.948;2022-12-29T11:50:36;11.90;84.00
26541;DHT22;14206;50.202;10.948;2022-12-29T11:53:16;12.00;84.20
26541;DHT22;14206;50.202;10.948;2022-12-29T11:55:56;12.00;83.80
26541;DHT22;14206;50.202;10.948;2022-12-29T11:58:33;11.90;84.20
26541;DHT22;14206;50.202;10.948;2022-12-29T12:01:13;11.90;84.20
26541;DHT22;14206;50.202;10.948;2022-12-29T12:04:12;11.90;83.70
26541;DHT22;14206;50.202;10.948;2022-12-29T12:07:11;11.90;84.40
26541;DHT22;14206;50.202;10.948;2022-12-29T12:09:51;11.90;84.50
26541;DHT22;14206;50.202;10.948;2022-12-29T12:12:41;11.80;84.50
26541;DHT22;14206;50.202;10.948;2022-12-29T12:15:34;11.80;85.00
26541;DHT22;14206;50.202;10.948;2022-12-29T12:20:42;11.70;85.10
26541;DHT22;14206;50.202;10.948;2022-12-29T12:23:40;11.70;85.20
26541;DHT22;14206;50.202;10.948;2022-12-29T12:26:21;11.70;85.30
26541;DHT22;14206;50.202;10.948;2022-12-29T12:29:20;11.60;85.80
26541;DHT22;14206;50.202;10.948;2022-12-29T12:31:52;11.60;85.10
26541;DHT22;14206;50.202;10.948;2022-12-29T12:42:16;11.60;86.10
26541;DHT22;14206;50.202;10.948;2022-12-29T12:45:13;11.50;86.60
26541;DHT22;14206;50.202;10.948;2022-12-29T13:01:15;11.40;90.10
26541;DHT22;14206;50.202;10.948;2022-12-29T13:11:49;10.90;94.30
26541;DHT22;14206;50.202;10.948;2022-12-29T13:22:44;10.70;94.00
26541;DHT22;14206;50.202;10.948;2022-12-29T13:25:21;10.60;94.50
26541;DHT22;14206;50.202;10.948;2022-12-29T13:33:50;10.60;94.80
26541;DHT22;14206;50.202;10.948;2022-12-29T13:36:47;10.70;94.60
26541;DHT22;14206;50.202;10.948;2022-12-29T13:41:53;10.70;94.60
26541;DHT22;14206;50.202;10.948;2022-12-29T13:47:33;10.70;95.00
26541;DHT22;14206;50.202;10.948;2022-12-29T13:50:03;10.60;95.60
26541;DHT22;14206;50.202;10.948;2022-12-29T13:55:28;10.50;95.90
26541;DHT22;14206;50.202;10.948;2022-12-29T14:00:56;10.60;95.60
26541;DHT22;14206;50.202;10.948;2022-12-29T14:03:48;10.60;95.40
26541;DHT22;14206;50.202;10.948;2022-12-29T14:06:31;10.60;95.30
26541;DHT22;14206;50.202;10.948;2022-12-29T14:09:02;10.60;95.20
26541;DHT22;14206;50.202;10.948;2022-12-29T14:11:33;10.60;95.10
26541;DHT22;14206;50.202;10.948;2022-12-29T14:14:24;10.60;95.30
26541;DHT22;14206;50.202;10.948;2022-12-29T14:16:52;10.50;95.10
26541;DHT22;14206;50.202;10.948;2022-12-29T14:19:39;10.50;95.30
26541;DHT22;14206;50.202;10.948;2022-12-29T14:22:09;10.50;95.40
26541;DHT22;14206;50.202;10.948;2022-12-29T14:24:43;10.40;95.50
26541;DHT22;14206;50.202;10.948;2022-12-29T14:34:57;10.40;95.50
26541;DHT22;14206;50.202;10.948;2022-12-29T14:37:35;10.40;95.30
26541;DHT22;14206;50.202;10.948;2022-12-29T14:40:24;10.40;95.20
26541;DHT22;14206;50.202;10.948;2022-12-29T14:42:55;10.40;95.30
26541;DHT22;14206;50.202;10.948;2022-12-29T14:45:27;10.40;95.30
26541;DHT22;14206;50.202;10.948;2022-12-29T14:47:56;10.30;95.30
26541;DHT22;14206;50.202;10.948;2022-12-29T14:50:41;10.30;95.40
26541;DHT22;14206;50.202;10.948;2022-12-29T14:53:45;10.30;95.50
26541;DHT22;14206;50.202;10.948;2022-12-29T14:56:20;10.30;95.70
26541;DHT22;14206;50.202;10.948;2022-12-29T14:59:01;10.20;95.90
26541;DHT22;14206;50.202;10.948;2022-12-29T15:01:37;10.10;96.10
26541;DHT22;14206;50.202;10.948;2022-12-29T15:04:19;10.00;96.40
26541;DHT22;14206;50.202;10.948;2022-12-29T15:06:49;9.90;96.60
26541;DHT22;14206;50.202;10.948;2022-12-29T15:09:40;9.90;96.60
26541;DHT22;14206;50.202;10.948;2022-12-29T15:15:10;9.60;96.60
26541;DHT22;14206;50.202;10.948;2022-12-29T15:17:43;9.60;96.60
26541;DHT22;14206;50.202;10.948;2022-12-29T15:20:28;9.50;96.60
26541;DHT22;14206;50.202;10.948;2022-12-29T15:23:03;9.40;96.60
26541;DHT22;14206;50.202;10.948;2022-12-29T15:25:31;9.30;96.60
26541;DHT22;14206;50.202;10.948;2022-12-29T15:28:01;9.30;96.60
26541;DHT22;14206;50.202;10.948;2022-12-29T15:30:29;9.30;96.60
26541;DHT22;14206;50.202;10.948;2022-12-29T15:32:56;9.20;96.60
26541;DHT22;14206;50.202;10.948;2022-12-29T15:35:33;9.20;96.60
26541;DHT22;14206;50.202;10.948;2022-12-29T15:38:13;9.10;96.60
26541;DHT22;14206;50.202;10.948;2022-12-29T15:40:44;9.10;96.60
26541;DHT22;14206;50.202;10.948;2022-12-29T15:43:43;9.10;96.60
26541;DHT22;14206;50.202;10.948;2022-12-29T15:46:13;9.10;96.60
26541;DHT22;14206;50.202;10.948;2022-12-29T15:48:40;9.00;96.60
26541;DHT22;14206;50.202;10.948;2022-12-29T15:51:30;9.00;96.60
26541;DHT22;14206;50.202;10.948;2022-12-29T15:53:57;9.00;96.60
26541;DHT22;14206;50.202;10.948;2022-12-29T15:56:24;9.00;96.60
26541;DHT22;14206;50.202;10.948;2022-12-29T15:58:58;9.00;96.60
26541;DHT22;14206;50.202;10.948;2022-12-29T16:01:32;9.00;96.60
26541;DHT22;14206;50.202;10.948;2022-12-29T16:04:03;9.10;96.60
26541;DHT22;14206;50.202;10.948;2022-12-29T16:06:42;9.20;96.60
26541;DHT22;14206;50.202;10.948;2022-12-29T16:09:19;9.30;96.60
26541;DHT22;14206;50.202;10.948;2022-12-29T16:11:51;9.30;96.60
26541;DHT22;14206;50.202;10.948;2022-12-29T16:14:24;9.30;96.60
26541;DHT22;14206;50.202;10.948;2022-12-29T16:16:57;9.40;96.60
26541;DHT22;14206;50.202;10.948;2022-12-29T16:21:57;9.40;96.60
26541;DHT22;14206;50.202;10.948;2022-12-29T16:24:27;9.50;96.60
26541;DHT22;14206;50.202;10.948;2022-12-29T16:29:28;9.40;96.60
26541;DHT22;14206;50.202;10.948;2022-12-29T16:31:58;9.40;96.60
26541;DHT22;14206;50.202;10.948;2022-12-29T16:34:30;9.30;96.60
26541;DHT22;14206;50.202;10.948;2022-12-29T16:37:28;9.30;96.60
26541;DHT22;14206;50.202;10.948;2022-12-29T16:39:55;9.30;96.60
26541;DHT22;14206;50.202;10.948;2022-12-29T16:47:49;9.50;96.60
26541;DHT22;14206;50.202;10.948;2022-12-29T16:50:37;9.60;96.60
26541;DHT22;14206;50.202;10.948;2022-12-29T16:53:06;9.70;96.60
26541;DHT22;14206;50.202;10.948;2022-12-29T16:55:50;9.70;96.60
26541;DHT22;14206;50.202;10.948;2022-12-29T16:58:24;9.70;96.60
26541;DHT22;14206;50.202;10.948;2022-12-29T17:01:00;9.70;96.60
26541;DHT22;14206;50.202;10.948;2022-12-29T17:03:48;9.70;96.60
26541;DHT22;14206;50.202;10.948;2022-12-29T17:06:18;9.80;96.60
26541;DHT22;14206;50.202;10.948;2022-12-29T17:08:45;9.80;96.60
26541;DHT22;14206;50.202;10.948;2022-12-29T17:16:43;9.60;96.60
26541;DHT22;14206;50.202;10.948;2022-12-29T17:19:28;9.60;96.60
26541;DHT22;14206;50.202;10.948;2022-12-29T17:21:55;9.60;96.60
26541;DHT22;14206;50.202;10.948;2022-12-29T17:24:22;9.60;96.60
26541;DHT22;14206;50.202;10.948;2022-12-29T17:26:52;9.60;96.60
26541;DHT22;14206;50.202;10.948;2022-12-29T17:31:52;9.50;96.60
26541;DHT22;14206;50.202;10.948;2022-12-29T17:34:20;9.50;96.60
26541;DHT22;14206;50.202;10.948;2022-12-29T17:36:47;9.40;96.60
26541;DHT22;14206;50.202;10.948;2022-12-29T17:39:13;9.40;96.60
26541;DHT22;14206;50.202;10.948;2022-12-29T17:41:40;9.40;96.60
26541;DHT22;14206;50.202;10.948;2022-12-29T17:44:15;9.40;96.60
26541;DHT22;14206;50.202;10.948;2022-12-29T17:46:42;9.30;96.60
26541;DHT22;14206;50.202;10.948;2022-12-29T17:49:14;9.20;96.60
26541;DHT22;14206;50.202;10.948;2022-12-29T17:51:43;9.20;96.60
26541;DHT22;14206;50.202;10.948;2022-12-29T17:54:22;9.10;96.60
26541;DHT22;14206;50.202;10.948;2022-12-29T17:56:49;9.00;96.60
26541;DHT22;14206;50.202;10.948;2022-12-29T17:59:17;8.90;96.60
26541;DHT22;14206;50.202;10.948;2022-12-29T18:01:45;8.80;96.60
26541;DHT22;14206;50.202;10.948;2022-12-29T18:04:16;8.80;96.60
26541;DHT22;14206;50.202;10.948;2022-12-29T18:06:44;8.80;96.60
26541;DHT22;14206;50.202;10.948;2022-12-29T18:09:13;8.80;96.60
26541;DHT22;14206;50.202;10.948;2022-12-29T18:11:42;8.80;96.60
26541;DHT22;14206;50.202;10.948;2022-12-29T18:14:16;8.70;96.60
26541;DHT22;14206;50.202;10.948;2022-12-29T18:16:43;8.80;96.60
26541;DHT22;14206;50.202;10.948;2022-12-29T18:19:10;8.80;96.60
26541;DHT22;14206;50.202;10.948;2022-12-29T18:21:37;8.80;96.60
26541;DHT22;14206;50.202;10.948;2022-12-29T18:24:05;8.90;96.60
26541;DHT22;14206;50.202;10.948;2022-12-29T18:26:32;8.90;96.60